createdAt,value
2023-01-13T00:01:38.488Z,98003.06
2023-01-13T00:04:05.271Z,98004.53
2023-01-13T00:06:31.976Z,97991.31
2023-01-13T00:08:58.671Z,97997.66
2023-01-13T00:11:26.448Z,97992.94
2023-01-13T00:13:53.924Z,97995.63
2023-01-13T00:16:21.164Z,97992.59
2023-01-13T00:18:48.962Z,97992.28
2023-01-13T00:21:18.657Z,97985.03
2023-01-13T00:23:46.057Z,97991.63
2023-01-13T00:26:18.987Z,97982.56
2023-01-13T00:28:46.187Z,97978.66
2023-01-13T00:31:17.836Z,97975.06
2023-01-13T00:33:44.556Z,97976.38
2023-01-13T00:36:13.600Z,97978.66
2023-01-13T00:38:40.527Z,97972.50
2023-01-13T00:41:09.256Z,97967.38
2023-01-13T00:43:36.907Z,97960.25
2023-01-13T00:46:06.156Z,97964.19
2023-01-13T00:48:33.451Z,97955.13
2023-01-13T00:51:05.254Z,97953.25
2023-01-13T00:53:37.233Z,97956.03
2023-01-13T00:56:09.809Z,97946.53
2023-01-13T00:58:36.447Z,97936.00
2023-01-13T01:01:05.997Z,97935.94
2023-01-13T01:03:33.272Z,97929.97
2023-01-13T01:06:26.718Z,97933.00
2023-01-13T01:08:54.594Z,97930.19
2023-01-13T01:11:23.413Z,97929.81
2023-01-13T01:13:52.588Z,97930.38
2023-01-13T01:16:21.163Z,97931.84
2023-01-13T01:18:49.672Z,97934.47
2023-01-13T01:21:17.307Z,97922.91
2023-01-13T01:23:44.308Z,97923.34
2023-01-13T01:26:20.365Z,97932.84
2023-01-13T01:28:47.442Z,97929.53
2023-01-13T01:31:34.403Z,97934.22
2023-01-13T01:34:01.617Z,97924.81
2023-01-13T01:36:30.205Z,97931.84
2023-01-13T01:38:58.702Z,97930.13
2023-01-13T01:41:27.308Z,97932.97
2023-01-13T01:43:59.302Z,97930.38
2023-01-13T01:46:27.236Z,97925.94
2023-01-13T01:48:56.740Z,97924.00
2023-01-13T01:51:23.492Z,97922.03
2023-01-13T01:53:50.690Z,97922.69
2023-01-13T01:56:18.027Z,97922.34
2023-01-13T01:58:47.596Z,97907.31
2023-01-13T02:01:14.867Z,97910.75
2023-01-13T02:03:46.019Z,97915.34
2023-01-13T02:06:13.563Z,97915.59
2023-01-13T02:08:40.945Z,97910.41
2023-01-13T02:11:27.833Z,97914.53
2023-01-13T02:13:54.840Z,97911.66
2023-01-13T02:16:24.448Z,97915.50
2023-01-13T02:19:09.571Z,97911.25
2023-01-13T02:21:39.063Z,97911.66
2023-01-13T02:24:56.472Z,97901.13
2023-01-13T02:27:58.150Z,97902.59
2023-01-13T02:30:58.060Z,97896.44
2023-01-13T02:33:44.444Z,97899.22
2023-01-13T02:36:30.489Z,97891.44
2023-01-13T02:39:01.754Z,97889.13
2023-01-13T02:41:53.272Z,97882.94
2023-01-13T02:44:25.993Z,97877.00
2023-01-13T02:46:56.877Z,97878.41
2023-01-13T02:49:39.968Z,97865.22
2023-01-13T02:52:17.788Z,97869.53
2023-01-13T02:54:46.983Z,97864.00
2023-01-13T02:57:15.136Z,97871.84
2023-01-13T02:59:42.587Z,97867.13
2023-01-13T03:02:12.828Z,97873.97
2023-01-13T03:05:10.807Z,97863.19
2023-01-13T03:07:47.266Z,97859.94
2023-01-13T03:10:28.347Z,97861.41
2023-01-13T03:13:13.854Z,97863.59
2023-01-13T03:16:04.580Z,97865.97
2023-01-13T03:18:42.989Z,97868.16
2023-01-13T03:21:12.443Z,97861.09
2023-01-13T03:23:58.022Z,97860.22
2023-01-13T03:26:32.368Z,97857.47
2023-01-13T03:29:09.437Z,97861.09
2023-01-13T03:31:42.842Z,97850.44
2023-01-13T03:34:16.315Z,97847.13
2023-01-13T03:36:44.392Z,97844.41
2023-01-13T03:39:11.613Z,97828.03
2023-01-13T03:41:43.505Z,97839.88
2023-01-13T03:44:24.939Z,97835.06
2023-01-13T03:46:58.184Z,97831.38
2023-01-13T03:49:28.033Z,97827.66
2023-01-13T03:52:01.329Z,97826.22
2023-01-13T03:54:31.164Z,97831.84
2023-01-13T03:57:02.513Z,97831.03
2023-01-13T03:59:36.367Z,97827.56
2023-01-13T04:02:35.182Z,97822.25
2023-01-13T04:05:04.293Z,97830.38
2023-01-13T04:07:48.112Z,97823.31
2023-01-13T04:10:19.457Z,97819.00
2023-01-13T04:13:03.092Z,97809.06
2023-01-13T04:15:36.557Z,97802.56
2023-01-13T04:18:10.112Z,97808.31
2023-01-13T04:20:36.688Z,97807.44
2023-01-13T04:23:03.834Z,97806.91
2023-01-13T04:25:30.335Z,97818.00
2023-01-13T04:27:57.134Z,97810.09
2023-01-13T04:30:23.719Z,97813.25
2023-01-13T04:32:50.250Z,97812.69
2023-01-13T04:35:17.068Z,97815.25
2023-01-13T04:37:43.618Z,97811.56
2023-01-13T04:40:10.645Z,97809.38
2023-01-13T04:42:37.187Z,97802.25
2023-01-13T04:45:03.959Z,97806.53
2023-01-13T04:47:30.495Z,97800.78
2023-01-13T04:49:57.091Z,97783.72
2023-01-13T04:52:23.619Z,97790.94
2023-01-13T04:54:50.124Z,97795.09
2023-01-13T04:57:16.906Z,97792.44
2023-01-13T04:59:43.447Z,97787.38
2023-01-13T05:02:10.153Z,97780.78
2023-01-13T05:04:36.705Z,97778.66
2023-01-13T05:07:03.310Z,97781.28
2023-01-13T05:09:29.848Z,97777.41
2023-01-13T05:12:14.966Z,97778.41
2023-01-13T05:15:00.271Z,97790.41
2023-01-13T05:17:27.166Z,97783.41
2023-01-13T05:19:53.669Z,97787.47
2023-01-13T05:22:38.563Z,97789.47
2023-01-13T05:25:25.304Z,97782.97
2023-01-13T05:27:57.250Z,97775.59
2023-01-13T05:30:26.100Z,97780.47
2023-01-13T05:32:52.731Z,97784.38
2023-01-13T05:35:19.591Z,97784.06
2023-01-13T05:37:46.767Z,97779.84
2023-01-13T05:40:34.535Z,97780.97
2023-01-13T05:43:19.819Z,97782.78
2023-01-13T05:45:56.160Z,97778.53
2023-01-13T05:48:24.168Z,97779.81
2023-01-13T05:50:50.606Z,97779.28
2023-01-13T05:53:17.833Z,97766.25
2023-01-13T05:55:45.286Z,97770.50
2023-01-13T05:58:13.781Z,97767.34
2023-01-13T06:00:41.905Z,97766.03
2023-01-13T06:03:08.914Z,97772.59
2023-01-13T06:05:35.590Z,97780.03
2023-01-13T06:08:03.878Z,97781.50
2023-01-13T06:10:30.476Z,97786.63
2023-01-13T06:12:57.005Z,97784.25
2023-01-13T06:15:24.491Z,97799.22
2023-01-13T06:17:51.157Z,97795.72
2023-01-13T06:20:18.391Z,97795.13
2023-01-13T06:22:49.778Z,97795.34
2023-01-13T06:25:28.509Z,97798.06
2023-01-13T06:27:56.653Z,97800.91
2023-01-13T06:30:23.176Z,97798.78
2023-01-13T06:32:52.747Z,97787.94
2023-01-13T06:35:23.740Z,97792.09
2023-01-13T06:37:51.935Z,97790.56
2023-01-13T06:40:18.662Z,97778.91
2023-01-13T06:43:03.998Z,97780.56
2023-01-13T06:45:31.379Z,97774.63
2023-01-13T06:47:59.535Z,97768.28
2023-01-13T06:50:27.961Z,97774.16
2023-01-13T06:52:54.616Z,97777.09
2023-01-13T06:55:21.174Z,97778.94
2023-01-13T06:57:48.484Z,97771.56
2023-01-13T07:00:15.845Z,97775.44
2023-01-13T07:02:42.470Z,97772.59
2023-01-13T07:05:09.155Z,97772.50
2023-01-13T07:07:35.913Z,97766.94
2023-01-13T07:10:03.339Z,97766.72
2023-01-13T07:12:29.866Z,97770.28
2023-01-13T07:15:15.280Z,97775.38
2023-01-13T07:17:41.816Z,97771.22
2023-01-13T07:20:08.835Z,97772.91
2023-01-13T07:22:35.355Z,97779.72
2023-01-13T07:25:02.186Z,97776.69
2023-01-13T07:27:28.699Z,97776.44
2023-01-13T07:29:55.313Z,97777.91
2023-01-13T07:32:21.853Z,97770.09
2023-01-13T07:34:48.749Z,97788.03
2023-01-13T07:37:15.290Z,97787.72
2023-01-13T07:39:42.199Z,97794.88
2023-01-13T07:42:27.975Z,97797.88
2023-01-13T07:44:54.576Z,97788.16
2023-01-13T07:47:23.320Z,97781.63
2023-01-13T07:49:49.963Z,97780.88
2023-01-13T07:52:16.475Z,97781.44
2023-01-13T07:54:43.062Z,97788.16
2023-01-13T07:57:10.067Z,97793.88
2023-01-13T07:59:37.119Z,97788.34
2023-01-13T08:02:04.247Z,97788.34
2023-01-13T08:04:30.987Z,97789.56
2023-01-13T08:06:57.516Z,97803.09
2023-01-13T08:09:24.081Z,97790.19
2023-01-13T08:12:14.297Z,97791.91
2023-01-13T08:14:40.807Z,97804.38
2023-01-13T08:17:09.049Z,97808.38
2023-01-13T08:19:35.725Z,97817.22
2023-01-13T08:22:02.303Z,97813.81
2023-01-13T08:24:28.838Z,97823.22
2023-01-13T08:26:55.316Z,97828.06
2023-01-13T08:29:21.876Z,97829.88
2023-01-13T08:31:48.406Z,97822.06
2023-01-13T08:34:14.943Z,97832.88
2023-01-13T08:36:41.456Z,97846.84
2023-01-13T08:39:08.083Z,97855.84
2023-01-13T08:41:53.175Z,97848.44
2023-01-13T08:44:19.795Z,97859.66
2023-01-13T08:46:46.437Z,97854.53
2023-01-13T08:49:13.028Z,97853.75
2023-01-13T08:51:39.587Z,97870.69
2023-01-13T08:54:06.137Z,97882.94
2023-01-13T08:56:35.317Z,97884.41
2023-01-13T08:59:02.328Z,97893.03
2023-01-13T09:01:29.017Z,97894.97
2023-01-13T09:03:55.971Z,97907.44
2023-01-13T09:06:22.784Z,97914.06
2023-01-13T09:08:49.724Z,97948.63
2023-01-13T09:11:40.673Z,97972.84
2023-01-13T09:14:07.244Z,97964.66
2023-01-13T09:16:33.776Z,97970.19
2023-01-13T09:19:00.569Z,97959.13
2023-01-13T09:21:27.287Z,97967.25
2023-01-13T09:23:53.886Z,97973.13
2023-01-13T09:26:21.346Z,97970.31
2023-01-13T09:28:48.070Z,97971.47
2023-01-13T09:31:14.815Z,97977.94
2023-01-13T09:33:59.743Z,97973.09
2023-01-13T09:36:26.431Z,97983.78
2023-01-13T09:38:53.016Z,97985.56
2023-01-13T09:41:40.312Z,97979.69
2023-01-13T09:44:11.699Z,97981.34
2023-01-13T09:46:47.276Z,97984.34
2023-01-13T09:49:22.296Z,97984.94
2023-01-13T09:52:09.617Z,97985.06
2023-01-13T09:54:42.942Z,97980.00
2023-01-13T09:57:11.633Z,97988.13
2023-01-13T09:59:38.724Z,97985.09
2023-01-13T10:02:30.927Z,97983.88
2023-01-13T10:05:22.065Z,97985.19
2023-01-13T10:07:52.464Z,97985.47
2023-01-13T10:10:32.338Z,97996.41
2023-01-13T10:13:14.240Z,97994.47
2023-01-13T10:15:46.953Z,97989.16
2023-01-13T10:18:52.573Z,97991.81
2023-01-13T10:21:43.802Z,97995.44
2023-01-13T10:24:22.321Z,97992.03
2023-01-13T10:27:04.169Z,98000.41
2023-01-13T10:29:31.316Z,97987.31
2023-01-13T10:31:59.360Z,97999.00
2023-01-13T10:34:27.979Z,97999.75
2023-01-13T10:37:03.358Z,98004.66
2023-01-13T10:39:39.928Z,98014.03
2023-01-13T10:42:11.058Z,98012.78
2023-01-13T10:44:56.413Z,98012.53
2023-01-13T10:47:36.786Z,98016.91
2023-01-13T10:50:19.903Z,98030.25
2023-01-13T10:53:01.489Z,98048.38
2023-01-13T10:55:37.057Z,98033.44
2023-01-13T10:58:17.339Z,98030.16
2023-01-13T11:00:44.017Z,98038.28
2023-01-13T11:03:16.708Z,98041.88
2023-01-13T11:05:55.036Z,98030.44
2023-01-13T11:08:27.012Z,98019.41
2023-01-13T11:10:57.959Z,98018.13
2023-01-13T11:13:36.076Z,98023.47
2023-01-13T11:16:12.594Z,98027.53
2023-01-13T11:19:11.970Z,98029.75
2023-01-13T11:22:12.624Z,98033.84
2023-01-13T11:24:44.853Z,98029.03
2023-01-13T11:27:26.597Z,98027.56
2023-01-13T11:30:43.880Z,98045.66
2023-01-13T11:33:10.421Z,98043.03
2023-01-13T11:36:02.122Z,98045.28
2023-01-13T11:38:48.162Z,98051.19
2023-01-13T11:41:20.421Z,98041.38
2023-01-13T11:44:24.203Z,98053.38
2023-01-13T11:46:51.601Z,98047.28
2023-01-13T11:49:29.969Z,98053.34
2023-01-13T11:52:26.898Z,98044.41
2023-01-13T11:54:53.515Z,98045.16
2023-01-13T11:57:37.520Z,98049.41
2023-01-13T12:00:17.892Z,98043.56
2023-01-13T12:03:01.525Z,98049.00
2023-01-13T12:05:40.584Z,98036.28
2023-01-13T12:08:18.245Z,98026.09
2023-01-13T12:11:17.661Z,98023.56
2023-01-13T12:14:06.661Z,98024.50
2023-01-13T12:16:33.603Z,98037.88
2023-01-13T12:19:00.099Z,98027.03
2023-01-13T12:21:32.742Z,98032.41
2023-01-13T12:24:18.837Z,98042.34
2023-01-13T12:26:59.169Z,98042.34
2023-01-13T12:29:31.509Z,98044.81
2023-01-13T12:32:00.562Z,98044.13
2023-01-13T12:34:41.817Z,98053.16
2023-01-13T12:37:31.363Z,98049.69
2023-01-13T12:40:38.834Z,98059.53
2023-01-13T12:43:50.449Z,98051.28
2023-01-13T12:46:21.380Z,98054.22
2023-01-13T12:48:57.328Z,98067.69
2023-01-13T12:51:35.824Z,98066.50
2023-01-13T12:54:06.815Z,98069.78
2023-01-13T12:56:46.353Z,98065.72
2023-01-13T12:59:19.368Z,98075.50
2023-01-13T13:01:48.782Z,98078.41
2023-01-13T13:04:47.553Z,98099.06
2023-01-13T13:07:19.102Z,98073.34
2023-01-13T13:09:58.236Z,98082.84
2023-01-13T13:12:49.736Z,98086.94
2023-01-13T13:15:26.485Z,98083.16
2023-01-13T13:17:59.293Z,98091.25
2023-01-13T13:20:51.021Z,98084.50
2023-01-13T13:23:33.005Z,98089.00
2023-01-13T13:26:21.810Z,98071.38
2023-01-13T13:29:20.700Z,98064.78
2023-01-13T13:32:19.682Z,98073.97
2023-01-13T13:35:14.234Z,98085.09
2023-01-13T13:38:17.022Z,98086.63
2023-01-13T13:41:04.684Z,98092.66
2023-01-13T13:44:02.539Z,98102.19
2023-01-13T13:46:47.258Z,98090.41
2023-01-13T13:49:41.612Z,98076.81
2023-01-13T13:52:45.881Z,98094.94
2023-01-13T13:55:17.358Z,98094.69
2023-01-13T13:57:47.195Z,98092.81
2023-01-13T14:00:30.834Z,98110.59
2023-01-13T14:03:06.132Z,98112.41
2023-01-13T14:05:36.496Z,98122.03
2023-01-13T14:08:09.046Z,98119.22
2023-01-13T14:10:38.142Z,98138.78
2023-01-13T14:13:17.768Z,98144.25
2023-01-13T14:15:45.677Z,98151.31
2023-01-13T14:18:14.439Z,98160.38
2023-01-13T14:20:42.588Z,98169.59
2023-01-13T14:23:17.073Z,98163.38
2023-01-13T14:25:51.582Z,98182.03
2023-01-13T14:28:26.733Z,98185.88
2023-01-13T14:30:54.368Z,98200.63
2023-01-13T14:33:39.122Z,98174.09
2023-01-13T14:36:18.075Z,98172.06
2023-01-13T14:38:50.236Z,98164.88
2023-01-13T14:41:20.728Z,98164.31
2023-01-13T14:43:48.633Z,98181.31
2023-01-13T14:46:17.633Z,98192.56
2023-01-13T14:48:47.595Z,98183.31
2023-01-13T14:51:22.412Z,98179.38
2023-01-13T14:53:49.360Z,98191.09
2023-01-13T14:56:42.626Z,98196.03
2023-01-13T14:59:31.809Z,98202.63
2023-01-13T15:01:58.872Z,98209.06
2023-01-13T15:04:34.102Z,98209.06
2023-01-13T15:07:01.377Z,98217.88
2023-01-13T15:09:38.875Z,98228.09
2023-01-13T15:12:17.742Z,98219.19
2023-01-13T15:14:44.622Z,98220.50
2023-01-13T15:17:16.160Z,98221.25
2023-01-13T15:19:42.726Z,98231.19
2023-01-13T15:22:09.272Z,98232.09
2023-01-13T15:24:35.947Z,98225.59
2023-01-13T15:27:04.749Z,98222.53
2023-01-13T15:29:31.440Z,98230.97
2023-01-13T15:31:57.983Z,98240.72
2023-01-13T15:34:24.754Z,98242.13
2023-01-13T15:36:51.273Z,98246.34
2023-01-13T15:39:17.908Z,98254.97
2023-01-13T15:42:02.937Z,98252.56
2023-01-13T15:44:48.070Z,98263.53
2023-01-13T15:47:14.807Z,98266.66
2023-01-13T15:49:44.074Z,98263.28
2023-01-13T15:52:21.551Z,98263.16
2023-01-13T15:54:49.334Z,98270.31
2023-01-13T15:57:24.221Z,98279.53
2023-01-13T15:59:53.823Z,98281.84
2023-01-13T16:02:22.557Z,98282.81
2023-01-13T16:04:51.269Z,98283.88
2023-01-13T16:07:18.732Z,98296.66
2023-01-13T16:09:45.612Z,98305.16
2023-01-13T16:12:12.753Z,98310.84
2023-01-13T16:14:39.876Z,98306.53
2023-01-13T16:17:20.614Z,98312.09
2023-01-13T16:19:47.697Z,98315.94
2023-01-13T16:22:15.697Z,98317.97
2023-01-13T16:24:42.495Z,98311.25
2023-01-13T16:27:17.114Z,98320.25
2023-01-13T16:29:43.742Z,98318.13
2023-01-13T16:32:10.279Z,98316.28
2023-01-13T16:34:36.973Z,98312.50
2023-01-13T16:37:03.924Z,98316.63
2023-01-13T16:39:31.025Z,98327.00
2023-01-13T16:41:57.622Z,98332.91
2023-01-13T16:44:24.222Z,98338.13
2023-01-13T16:46:50.879Z,98341.38
2023-01-13T16:49:18.224Z,98344.66
2023-01-13T16:51:44.782Z,98344.13
2023-01-13T16:54:12.203Z,98346.03
2023-01-13T16:56:38.737Z,98348.69
2023-01-13T16:59:16.044Z,98352.97
2023-01-13T17:01:44.671Z,98357.06
2023-01-13T17:04:19.761Z,98360.03
2023-01-13T17:07:01.029Z,98360.69
2023-01-13T17:09:28.832Z,98371.41
2023-01-13T17:11:55.728Z,98385.03
2023-01-13T17:18:40.688Z,98378.38
2023-01-13T17:21:07.366Z,98381.34
2023-01-13T17:26:37.323Z,98387.16
2023-01-13T17:29:10.712Z,98383.94
2023-01-13T17:31:37.528Z,98395.13
2023-01-13T17:34:04.927Z,98396.56
2023-01-13T17:36:32.640Z,98403.28
2023-01-13T17:38:59.417Z,98400.69
2023-01-13T17:41:31.442Z,98403.25
2023-01-13T17:44:23.984Z,98399.19
2023-01-13T17:46:54.791Z,98394.66
2023-01-13T17:49:22.796Z,98396.00
2023-01-13T17:51:51.072Z,98400.00
2023-01-13T17:54:18.142Z,98396.63
2023-01-13T17:56:44.834Z,98400.00
2023-01-13T17:59:15.385Z,98402.03
2023-01-13T18:01:42.311Z,98409.34
2023-01-13T18:04:21.304Z,98419.81
2023-01-13T18:06:48.911Z,98426.13
2023-01-13T18:09:42.699Z,98417.63
2023-01-13T18:12:09.241Z,98424.84
2023-01-13T18:14:35.799Z,98419.31
2023-01-13T18:17:02.418Z,98432.34
2023-01-13T18:20:07.471Z,98431.72
2023-01-13T18:22:52.652Z,98439.28
2023-01-13T18:25:37.980Z,98445.91
2023-01-13T18:28:04.941Z,98447.84
2023-01-13T18:30:31.478Z,98446.94
2023-01-13T18:32:58.226Z,98440.72
2023-01-13T18:35:24.823Z,98450.69
2023-01-13T18:37:52.235Z,98453.53
2023-01-13T18:40:19.655Z,98456.34
2023-01-13T18:42:52.207Z,98458.84
2023-01-13T18:45:24.469Z,98465.47
2023-01-13T18:47:51.546Z,98468.63
2023-01-13T18:50:18.916Z,98475.09
2023-01-13T18:52:45.573Z,98490.09
2023-01-13T18:55:12.246Z,98492.09
2023-01-13T18:57:39.971Z,98501.81
2023-01-13T19:00:09.121Z,98505.66
2023-01-13T19:02:35.889Z,98513.47
2023-01-13T19:05:02.839Z,98507.81
2023-01-13T19:07:31.852Z,98514.34
2023-01-13T19:09:59.603Z,98515.44
2023-01-13T19:12:27.453Z,98523.16
2023-01-13T19:14:55.238Z,98528.00
2023-01-13T19:17:22.725Z,98538.28
2023-01-13T19:19:52.224Z,98536.19
2023-01-13T19:22:37.398Z,98536.31
2023-01-13T19:25:05.146Z,98544.59
2023-01-13T19:27:32.442Z,98556.13
2023-01-13T19:30:00.775Z,98557.53
2023-01-13T19:32:28.065Z,98567.72
2023-01-13T19:34:56.203Z,98562.16
2023-01-13T19:37:22.888Z,98569.69
2023-01-13T19:39:49.646Z,98573.25
2023-01-13T19:42:34.908Z,98571.84
2023-01-13T19:45:20.619Z,98579.06
2023-01-13T19:47:47.523Z,98588.22
2023-01-13T19:50:14.633Z,98588.09
2023-01-13T19:52:44.281Z,98601.19
2023-01-13T19:55:12.474Z,98600.81
2023-01-13T19:57:40.584Z,98610.91
2023-01-13T20:00:09.875Z,98614.75
2023-01-13T20:02:46.797Z,98617.81
2023-01-13T20:05:17.971Z,98616.13
2023-01-13T20:07:44.940Z,98613.13
2023-01-13T20:10:13.211Z,98613.47
2023-01-13T20:12:39.980Z,98608.00
2023-01-13T20:15:07.330Z,98614.34
2023-01-13T20:17:35.067Z,98617.25
2023-01-13T20:20:04.634Z,98622.91
2023-01-13T20:22:31.182Z,98622.91
2023-01-13T20:24:57.732Z,98613.53
2023-01-13T20:27:24.523Z,98627.47
2023-01-13T20:29:55.784Z,98629.56
2023-01-13T20:32:22.455Z,98638.84
2023-01-13T20:34:49.314Z,98631.66
2023-01-13T20:37:15.897Z,98652.56
2023-01-13T20:39:48.431Z,98644.06
2023-01-13T20:42:30.674Z,98650.28
2023-01-13T20:44:59.625Z,98662.44
2023-01-13T20:47:27.985Z,98659.63
2023-01-13T20:49:54.573Z,98648.47
2023-01-13T20:52:21.399Z,98650.00
2023-01-13T20:54:49.677Z,98634.81
2023-01-13T20:57:17.739Z,98647.22
2023-01-13T20:59:46.279Z,98645.34
2023-01-13T21:02:15.919Z,98650.53
2023-01-13T21:04:42.812Z,98653.78
2023-01-13T21:07:09.802Z,98661.56
2023-01-13T21:09:36.784Z,98650.53
2023-01-13T21:12:29.474Z,98649.75
2023-01-13T21:15:14.697Z,98652.00
2023-01-13T21:18:13.932Z,98656.09
2023-01-13T21:20:40.721Z,98645.47
2023-01-13T21:23:11.318Z,98662.28
2023-01-13T21:25:39.807Z,98661.66
2023-01-13T21:28:07.880Z,98656.84
2023-01-13T21:30:34.869Z,98658.97
2023-01-13T21:33:03.815Z,98663.75
2023-01-13T21:35:33.399Z,98652.38
2023-01-13T21:38:03.314Z,98658.31
2023-01-13T21:40:30.315Z,98657.25
2023-01-13T21:43:15.918Z,98661.38
2023-01-13T21:46:11.875Z,98660.31
2023-01-13T21:48:38.533Z,98667.97
2023-01-13T21:51:05.297Z,98670.72
2023-01-13T21:53:35.865Z,98676.88
2023-01-13T21:56:05.724Z,98669.56
2023-01-13T21:58:35.319Z,98678.91
2023-01-13T22:01:02.746Z,98681.69
2023-01-13T22:03:29.550Z,98691.13
2023-01-13T22:05:56.619Z,98691.31
2023-01-13T22:08:23.356Z,98684.72
2023-01-13T22:10:59.514Z,98695.06
2023-01-13T22:13:47.772Z,98695.75
2023-01-13T22:16:15.427Z,98703.84
2023-01-13T22:18:42.227Z,98706.81
2023-01-13T22:21:09.142Z,98701.59
2023-01-13T22:23:35.833Z,98692.78
2023-01-13T22:26:09.692Z,98709.09
2023-01-13T22:28:43.206Z,98705.56
2023-01-13T22:31:15.149Z,98704.47
2023-01-13T22:33:47.904Z,98711.38
2023-01-13T22:36:15.356Z,98719.25
2023-01-13T22:38:42.273Z,98717.63
2023-01-13T22:41:09.550Z,98726.22
2023-01-13T22:43:37.648Z,98719.38
2023-01-13T22:46:24.042Z,98712.69
2023-01-13T22:48:53.879Z,98721.09
2023-01-13T22:51:25.399Z,98722.50
2023-01-13T22:53:57.720Z,98717.50
2023-01-13T22:56:26.674Z,98727.47
2023-01-13T22:58:54.739Z,98729.06
2023-01-13T23:01:23.483Z,98720.25
2023-01-13T23:03:50.400Z,98725.22
2023-01-13T23:06:21.151Z,98717.19
2023-01-13T23:08:50.251Z,98713.97
2023-01-13T23:11:18.325Z,98719.38
2023-01-13T23:13:44.963Z,98720.84
2023-01-13T23:16:18.953Z,98733.06
2023-01-13T23:18:56.992Z,98733.38
2023-01-13T23:21:26.601Z,98740.44
2023-01-13T23:23:58.563Z,98724.78
2023-01-13T23:26:38.292Z,98725.28
2023-01-13T23:29:08.116Z,98725.78
2023-01-13T23:31:37.976Z,98722.78
2023-01-13T23:34:08.970Z,98719.94
2023-01-13T23:36:41.251Z,98718.34
2023-01-13T23:39:10.914Z,98721.72
2023-01-13T23:41:40.849Z,98727.00
2023-01-13T23:46:48.039Z,98734.00
2023-01-13T23:49:16.208Z,98730.69
2023-01-13T23:51:42.801Z,98722.94
2023-01-13T23:54:09.411Z,98720.03
2023-01-13T23:56:39.280Z,98708.69
2023-01-13T23:59:06.493Z,98718.75
